Flight Track Log - Related Links

Times and Time Zones

All times are in EDT time to prevent confusion due to time zone crossing. See the LXJ262 flight status page for this flight to view local times or setup timezone preferences in your user account.


Time Position Orientation Groundspeed Altitude Reporting Facility
EDT Latitude Longitude Course Direction KTS MPH feet Rate Location/Type
Thu 10:44:35 PM 40.8333 -74.1167 246° West 164 189 1,500  Level New York TRACON
Thu 10:45:29 PM 40.8167 -74.1667 246° West 174 200 1,600 1,263 Climbing New York TRACON
Thu 10:46:29 PM 40.7833 -74.2000 217° Southwest 197 227 3,900 2,000 Climbing New York TRACON
Thu 10:47:35 PM 40.7000 -74.2333 197° South 265 305 5,800 712 Climbing New York TRACON
Thu 10:49:26 PM 40.5722 -74.2683 192° South 279 321 6,000 70 Climbing New York Center
Thu 10:50:27 PM 40.5039 -74.2539 171° South 273 314 6,000  Level New York Center
Thu 10:51:29 PM 40.4239 -74.2169 161° South 278 320 6,000 49 Level New York Center
Thu 10:52:29 PM 40.3603 -74.1839 158° South 284 327 6,100 2,339 Climbing New York Center
Thu 10:53:27 PM 40.2772 -74.1689 172° South 279 321 10,600 4,891 Climbing New York Center
Thu 10:54:28 PM 40.2031 -74.2142 205° Southwest 279 321 15,800 4,397 Climbing New York Center
Thu 10:55:38 PM 40.1211 -74.2975 218° Southwest 297 342 20,200 3,785 Climbing Washington Center
Thu 10:56:38 PM 40.0469 -74.3747 219° Southwest 328 377 24,000 3,800 Climbing Washington Center
Thu 10:57:38 PM 39.9686 -74.4517 217° Southwest 350 403 27,800 3,450 Climbing Washington Center
Thu 10:58:38 PM 39.8900 -74.5289 217° Southwest 358 412 30,900 2,850 Climbing Washington Center
Thu 10:59:38 PM 39.8094 -74.6111 218° Southwest 364 419 33,500 2,150 Climbing Washington Center
Thu 11:00:38 PM 39.7225 -74.6906 215° Southwest 374 430 35,200 1,600 Climbing Washington Center
Thu 11:01:38 PM 39.6378 -74.7806 219° Southwest 389 448 36,700 1,500 Climbing Washington Center
Thu 11:02:38 PM 39.5508 -74.8675 218° Southwest 389 448 38,200 1,400 Climbing Washington Center
Thu 11:03:38 PM 39.4639 -74.9544 218° Southwest 389 448 39,500 900 Climbing Washington Center
Thu 11:04:38 PM 39.3747 -75.0411 217° Southwest 389 448 40,000 200 Climbing Washington Center
Thu 11:05:38 PM 39.2833 -75.1169 213° Southwest 389 448 39,900  Descending Washington Center
Thu 11:06:39 PM 39.1814 -75.1631 199° South 385 443 40,000 50 Climbing Washington Center
Thu 11:07:38 PM 39.0711 -75.2092 198° South 396 456 40,000  Level Washington Center
Thu 11:08:38 PM 38.9628 -75.2581 199° South 408 470 40,000  Level Washington Center
Thu 11:09:38 PM 38.8544 -75.2983 196° South 413 475 40,000  Level Washington Center
Thu 11:10:38 PM 38.7461 -75.3414 197° South 413 475 40,000  Level Washington Center
Thu 11:11:38 PM 38.6378 -75.3922 200° South 413 475 40,000  Level Washington Center
Thu 11:12:38 PM 38.5294 -75.4350 197° South 413 475 40,000  Level Washington Center
Thu 11:13:38 PM 38.4211 -75.4806 198° South 413 475 40,000  Level Washington Center
Thu 11:14:38 PM 38.3233 -75.5389 205° Southwest 402 463 40,000  Level Washington Center
Thu 11:15:38 PM 38.2397 -75.6022 211° Southwest 394 453 40,000  Level Washington Center
Thu 11:16:38 PM 38.1544 -75.6894 219° Southwest 389 448 40,000  Level Washington Center
Thu 11:17:38 PM 38.0644 -75.7711 216° Southwest 394 453 40,000  Level Washington Center
Thu 11:18:38 PM 37.9789 -75.8525 217° Southwest 401 461 40,000  Level Washington Center
Thu 11:19:38 PM 37.8911 -75.9339 216° Southwest 401 461 40,000  Level Washington Center
Thu 11:20:38 PM 37.8011 -76.0175 216° Southwest 401 461 40,000  Level Washington Center
Thu 11:21:38 PM 37.7047 -76.1167 219° Southwest 401 461 40,000  Level Washington Center
Thu 11:22:38 PM 37.6233 -76.1844 213° Southwest 401 461 40,000  Level Washington Center
Thu 11:23:38 PM 37.5225 -76.2753 216° Southwest 401 461 40,000  Level Washington Center
Thu 11:24:38 PM 37.4533 -76.3428 218° Southwest 401 461 40,000  Level Washington Center
Thu 11:25:38 PM 37.3547 -76.4278 214° Southwest 401 461 40,000  Level Washington Center
Thu 11:26:38 PM 37.2728 -76.5053 217° Southwest 409 471 40,000  Level Washington Center
Thu 11:27:38 PM 37.1825 -76.5850 215° Southwest 404 465 40,000  Level Washington Center
Thu 11:28:38 PM 37.0753 -76.6825 216° Southwest 404 465 40,000  Level Washington Center
Thu 11:29:38 PM 36.9869 -76.7644 217° Southwest 404 465 40,000  Level Washington Center
Thu 11:30:38 PM 36.8944 -76.8436 214° Southwest 404 465 40,000  Level Washington Center
Thu 11:31:38 PM 36.8017 -76.9225 214° Southwest 404 465 40,000  Level Washington Center
Thu 11:32:38 PM 36.7069 -77.0039 215° Southwest 404 465 40,000  Level Washington Center
Thu 11:33:38 PM 36.6119 -77.0825 214° Southwest 409 471 40,000  Level Washington Center
Thu 11:34:38 PM 36.5172 -77.1633 214° Southwest 409 471 40,000  Level Washington Center
Thu 11:35:38 PM 36.4222 -77.2389 213° Southwest 409 471 40,000  Level Washington Center
Thu 11:36:38 PM 36.3292 -77.3219 216° Southwest 414 476 40,000  Level Washington Center
Thu 11:37:38 PM 36.2342 -77.3997 213° Southwest 414 476 40,000  Level Washington Center
Thu 11:38:38 PM 36.1517 -77.4697 214° Southwest 414 476 40,000  Level Washington Center
Thu 11:39:38 PM 36.0567 -77.5497 214° Southwest 414 476 40,000  Level Washington Center
Thu 11:40:38 PM 35.9636 -77.6244 213° Southwest 414 476 40,000  Level Washington Center
Thu 11:41:38 PM 35.8683 -77.7014 213° Southwest 414 476 40,000  Level Washington Center
Thu 11:42:38 PM 35.7753 -77.7783 214° Southwest 414 476 40,000  Level Washington Center
Thu 11:43:38 PM 35.6819 -77.8550 214° Southwest 414 476 40,000  Level Washington Center
Thu 11:44:38 PM 35.5886 -77.9317 214° Southwest 414 476 40,000  Level Washington Center
Thu 11:45:38 PM 35.4953 -78.0056 213° Southwest 409 471 40,000  Level Washington Center
Thu 11:46:38 PM 35.4019 -78.0792 213° Southwest 404 465 40,000  Level Washington Center
Thu 11:48:15 PM 35.2508 -78.2008 213° Southwest 381 438 40,000  Level Jacksonville Center
Thu 11:49:15 PM 35.1558 -78.2772 213° Southwest 391 450 40,000  Level Jacksonville Center
Thu 11:50:16 PM 35.0625 -78.3508 213° Southwest 402 463 40,000  Level Jacksonville Center
Thu 11:51:15 PM 34.9692 -78.4267 214° Southwest 408 470 40,000  Level Jacksonville Center
Thu 11:52:15 PM 34.8739 -78.5025 213° Southwest 408 470 40,000  Level Jacksonville Center
Thu 11:53:15 PM 34.7786 -78.5781 213° Southwest 408 470 40,000  Level Jacksonville Center
Thu 11:54:15 PM 34.6831 -78.6536 213° Southwest 408 470 40,000  Level Jacksonville Center
Thu 11:55:15 PM 34.5894 -78.7264 213° Southwest 408 470 40,000  Level Jacksonville Center
Thu 11:56:15 PM 34.4964 -78.8089 216° Southwest 413 475 40,000  Level Jacksonville Center
Thu 11:57:15 PM 34.4028 -78.8814 213° Southwest 413 475 40,000  Level Jacksonville Center
Thu 11:58:16 PM 34.3092 -78.9561 213° Southwest 408 470 40,000  Level Jacksonville Center
Thu 11:59:15 PM 34.2108 -79.0208 209° Southwest 408 470 40,000  Level Jacksonville Center
Fri 12:00:15 AM 34.0997 -79.0708 200° South 415 478 40,000  Level Jacksonville Center
Fri 12:01:15 AM 33.9906 -79.1181 200° South 420 483 40,000  Level Jacksonville Center
Fri 12:02:15 AM 33.8817 -79.1678 201° Southwest 420 483 40,000  Level Jacksonville Center
Fri 12:03:16 AM 33.7703 -79.2150 199° South 425 489 40,000  Level Jacksonville Center
Fri 12:04:15 AM 33.6569 -79.2622 199° South 419 482 40,000  Level Jacksonville Center
Fri 12:05:16 AM 33.5478 -79.3114 201° Southwest 419 482 40,000  Level Jacksonville Center
Fri 12:06:15 AM 33.4364 -79.3608 200° South 419 482 40,000  Level Jacksonville Center
Fri 12:07:15 AM 33.3272 -79.4097 201° Southwest 425 489 40,000  Level Jacksonville Center
Fri 12:08:15 AM 33.2178 -79.4589 201° Southwest 425 489 40,000  Level Jacksonville Center
Fri 12:09:15 AM 33.1044 -79.5078 200° South 433 498 40,000  Level Jacksonville Center
Fri 12:10:15 AM 32.9908 -79.5567 200° South 433 498 40,000  Level Jacksonville Center
Fri 12:11:15 AM 32.8753 -79.6081 200° South 438 504 40,000  Level Jacksonville Center
Fri 12:12:15 AM 32.7597 -79.6592 200° South 443 510 40,000  Level Jacksonville Center
Fri 12:13:15 AM 32.6464 -79.7100 201° Southwest 443 510 40,000  Level Jacksonville Center
Fri 12:14:15 AM 32.5306 -79.7583 199° South 443 510 40,000  Level Jacksonville Center
Fri 12:15:15 AM 32.4150 -79.8092 200° South 443 510 40,000  Level Jacksonville Center
Fri 12:16:15 AM 32.3036 -79.8597 201° Southwest 443 510 40,000  Level Jacksonville Center
Fri 12:17:15 AM 32.1878 -79.9100 200° South 443 510 40,000  Level Jacksonville Center
Fri 12:18:15 AM 32.0719 -79.9581 199° South 443 510 40,000  Level Jacksonville Center
Fri 12:19:15 AM 31.9606 -80.0081 201° Southwest 443 510 40,000  Level Jacksonville Center
Fri 12:20:15 AM 31.8467 -80.0581 200° South 443 510 40,000  Level Jacksonville Center
Fri 12:21:15 AM 31.7350 -80.1056 200° South 443 510 40,000  Level Jacksonville Center
Fri 12:22:15 AM 31.6211 -80.1503 198° South 443 510 40,000  Level Jacksonville Center
Fri 12:23:15 AM 31.4983 -80.1686 187° South 437 503 40,000  Level Jacksonville Center
Fri 12:24:15 AM 31.3733 -80.1794 184° South 450 518 40,000  Level Jacksonville Center
Fri 12:25:15 AM 31.2631 -80.1997 189° South 456 525 40,000  Level Jacksonville Center
Fri 12:26:15 AM 31.1383 -80.2228 189° South 450 518 40,000  Level Jacksonville Center
Fri 12:27:15 AM 31.0158 -80.2481 190° South 450 518 40,000  Level Jacksonville Center
Fri 12:28:15 AM 30.8911 -80.2733 190° South 450 518 40,000  Level Jacksonville Center
Fri 12:29:15 AM 30.7661 -80.2936 188° South 455 524 40,000  Level Jacksonville Center
Fri 12:30:15 AM 30.6372 -80.3214 191° South 460 529 40,000  Level Jacksonville Center
Fri 12:31:15 AM 30.5125 -80.3417 188° South 465 535 40,000  Level Jacksonville Center
Fri 12:32:15 AM 30.3897 -80.3664 190° South 465 535 40,000  Level Jacksonville Center
Fri 12:33:15 AM 30.2586 -80.3892 189° South 465 535 40,000  Level Jacksonville Center
Fri 12:34:15 AM 30.1319 -80.4164 191° South 465 535 40,000  Level Jacksonville Center
Fri 12:35:15 AM 30.0028 -80.4389 189° South 470 541 40,000  Level Jacksonville Center
Fri 12:36:15 AM 29.8781 -80.4636 190° South 470 541 40,000  Level Jacksonville Center
Fri 12:37:51 AM 29.6731 -80.4975 188° South 466 536 40,000  Level Miami Center
Fri 12:38:53 AM 29.5414 -80.5072 184° South 471 542 40,000  Level Miami Center
Fri 12:39:51 AM 29.4064 -80.4908 174° South 476 548 40,000  Level Miami Center
Fri 12:40:54 AM 29.2714 -80.4675 171° South 483 556 40,000  Level Miami Center
Fri 12:41:51 AM 29.1364 -80.4439 171° South 489 563 40,000  Level Miami Center
Fri 12:42:53 AM 28.9992 -80.4206 172° South 494 568 40,000  Level Miami Center
Fri 12:43:53 AM 28.8497 -80.3944 171° South 503 579 40,000  Level Miami Center
Fri 12:44:53 AM 28.7167 -80.3736 172° South 496 571 40,000 -407 Level Miami Center
Fri 12:45:51 AM 28.5817 -80.3481 171° South 496 571 39,200 -1,831 Descending Miami Center
Fri 12:46:51 AM 28.4611 -80.3278 172° South 496 571 36,400 -2,826 Descending Miami Center
Fri 12:47:52 AM 28.3261 -80.3047 171° South 496 571 33,500 -3,350 Descending Miami Center
Fri 12:48:51 AM 28.1825 -80.2814 172° South 491 565 29,700 -3,471 Descending Miami Center
Fri 12:49:53 AM 28.0517 -80.2586 171° South 481 554 26,500 -3,073 Descending Miami Center
Fri 12:50:54 AM 27.9331 -80.2411 173° South 462 532 23,400 -3,153 Descending Miami Center
Fri 12:51:51 AM 27.8167 -80.2211 171° South 434 499 20,300 -2,797 Descending Miami Center
Fri 12:52:52 AM 27.7231 -80.2044 171° South 420 483 17,900 -2,902 Descending Miami Center
Fri 12:53:53 AM 27.6025 -80.1844 172° South 400 460 14,400 -2,777 Descending Miami Center
Fri 12:54:53 AM 27.4964 -80.1672 172° South 390 449 12,300 -1,966 Descending Miami Center
Fri 12:55:52 AM 27.3986 -80.1528 173° South 377 434 10,500 -1,119 Descending Miami Center
Fri 12:56:51 AM 27.3217 -80.1411 172° South 335 386 10,100 -200 Descending Miami Center
Fri 12:57:52 AM 27.2381 -80.1436 182° South 306 352 10,100 -150 Level Miami Center
Fri 12:58:51 AM 27.1461 -80.1456 181° South 306 352 9,800 -1,091 Descending Miami Center
Fri 12:59:53 AM 27.0647 -80.1503 183° South 306 352 7,900 -1,918 Descending Miami Center
Fri 01:00:53 AM 26.9872 -80.1528 182° South 300 345 5,900 -1,932 Descending Miami Center
Fri 01:01:51 AM 26.9161 -80.1556 182° South 291 335 4,100 -1,815 Descending Miami Center
Fri 01:02:52 AM 26.8347 -80.1603 183° South 272 313 2,300 -1,770 Descending Miami Center

Login

Don't have an account? Register now (free) for customized features, flight alerts, and more!